Time;durP1;ratioP1;P1;durP2;ratioP2;P2;SDS_P1;SDS_P2;PMS_P1;PMS_P2;Temp;Humidity;BMP_temperature;BMP_pressure;BME280_temperature;BME280_humidity;BME280_pressure;Samples;Min_cycle;Max_cycle;Signal;HPM_P1;HPM_P2
2022/04/07 00:00:01;;;;;;;;;;;8.50;99.90;;;;;;5049146;28;19929;-85
2022/04/07 00:02:27;;;;;;;;;;;8.60;99.90;;;;;;5041140;28;20432;-85
2022/04/07 00:04:52;;;;;;;;;;;8.60;99.90;;;;;;5023434;28;19921;-86
2022/04/07 00:07:18;;;;;;;;;;;8.50;99.90;;;;;;5031031;28;19924;-85
2022/04/07 00:09:43;;;;;;;;;;;8.50;99.90;;;;;;5039673;28;19932;-85
2022/04/07 00:12:09;;;;;;;;;;;8.50;99.90;;;;;;5024176;28;19924;-85
2022/04/07 00:14:35;;;;;;;;;;;8.50;99.90;;;;;;5029559;28;19913;-84
2022/04/07 00:17:00;;;;;;;;;;;8.60;99.90;;;;;;5013009;28;20350;-85
2022/04/07 00:19:25;;;;;;;;;;;8.50;99.90;;;;;;5041615;28;19928;-85
2022/04/07 00:21:51;;;;;;;;;;;8.60;99.90;;;;;;5032655;28;19913;-84
2022/04/07 00:24:16;;;;;;;;;;;8.60;99.90;;;;;;5029767;28;19951;-85
2022/04/07 00:26:42;;;;;;;;;;;8.50;99.90;;;;;;5026251;28;20020;-85
2022/04/07 00:29:07;;;;;;;;;;;8.60;99.90;;;;;;5012479;28;19944;-84
2022/04/07 00:31:39;;;;;;;;;;;8.60;99.90;;;;;;5012823;28;19918;-84
2022/04/07 00:34:05;;;;;;;;;;;8.60;99.90;;;;;;5020457;28;19925;-84
2022/04/07 00:36:31;;;;;;;;;;;8.60;99.90;;;;;;5042642;28;19963;-85
2022/04/07 00:38:56;;;;;;;;;;;8.60;99.90;;;;;;5012034;28;19950;-84
2022/04/07 00:41:22;;;;;;;;;;;8.60;99.90;;;;;;5037017;28;20476;-84
2022/04/07 00:43:51;;;;;;;;;;;8.60;99.90;;;;;;5029702;28;19917;-85
2022/04/07 00:46:17;;;;;;;;;;;8.60;99.90;;;;;;5029303;28;19913;-84
2022/04/07 00:48:42;;;;;;;;;;;8.50;99.90;;;;;;5028136;28;20028;-85
2022/04/07 00:51:08;;;;;;;;;;;8.50;99.90;;;;;;5029309;28;19913;-85
2022/04/07 00:53:34;;;;;;;;;;;8.50;99.90;;;;;;5046285;28;19920;-84
2022/04/07 00:56:01;;;;;;;;;;;8.50;99.90;;;;;;5044642;28;19909;-85
2022/04/07 00:58:31;;;;;;;;;;;8.50;99.90;;;;;;5040198;28;19913;-85
2022/04/07 01:00:57;;;;;;;;;;;8.40;99.90;;;;;;5050164;28;19917;-85
2022/04/07 01:03:22;;;;;;;;;;;8.40;99.90;;;;;;5052426;28;19947;-85
2022/04/07 01:05:49;;;;;;;;;;;8.40;99.90;;;;;;5044039;28;19917;-85
2022/04/07 01:08:14;;;;;;;;;;;8.40;99.90;;;;;;5049935;28;19913;-85
2022/04/07 01:10:40;;;;;;;;;;;8.40;99.90;;;;;;5053842;28;20483;-85
2022/04/07 01:13:06;;;;;;;;;;;8.40;99.90;;;;;;5023368;28;20345;-85
2022/04/07 01:15:31;;;;;;;;;;;8.40;99.90;;;;;;5040297;28;20297;-85
2022/04/07 01:17:58;;;;;;;;;;;8.40;99.90;;;;;;5042447;28;19913;-84
2022/04/07 01:20:23;;;;;;;;;;;8.40;99.90;;;;;;5028970;28;19925;-84
2022/04/07 01:22:51;;;;;;;;;;;8.40;99.90;;;;;;5032328;28;20012;-85
2022/04/07 01:25:17;;;;;;;;;;;8.40;99.90;;;;;;5032263;28;19910;-84
2022/04/07 01:27:48;;;;;;;;;;;8.30;99.90;;;;;;5016639;28;19921;-85
2022/04/07 01:30:15;;;;;;;;;;;8.30;99.90;;;;;;5017253;28;20381;-86
2022/04/07 01:32:43;;;;;;;;;;;8.30;99.90;;;;;;5049861;28;20430;-86
2022/04/07 01:35:09;;;;;;;;;;;8.30;99.90;;;;;;5051518;22;19932;-91
2022/04/07 01:37:37;;;;;;;;;;;8.40;99.90;;;;;;5030519;28;19913;-91
2022/04/07 01:40:03;;;;;;;;;;;8.30;99.90;;;;;;5012597;28;20016;-91
2022/04/07 01:42:29;;;;;;;;;;;8.30;99.90;;;;;;5026615;28;19924;-92
2022/04/07 01:44:57;;;;;;;;;;;8.30;99.90;;;;;;4999010;28;19921;-91
2022/04/07 01:47:23;;;;;;;;;;;8.30;99.90;;;;;;4999585;28;20460;-91
2022/04/07 01:49:53;;;;;;;;;;;8.30;99.90;;;;;;5007334;28;20024;-91
2022/04/07 01:52:18;;;;;;;;;;;8.30;99.90;;;;;;5003407;28;19921;-91
2022/04/07 01:54:44;;;;;;;;;;;8.30;99.90;;;;;;4976359;28;20378;-91
2022/04/07 01:57:10;;;;;;;;;;;8.30;99.90;;;;;;5001059;28;19914;-91
2022/04/07 01:59:36;;;;;;;;;;;8.30;99.90;;;;;;4995565;28;19917;-91
2022/04/07 02:02:02;;;;;;;;;;;8.30;99.90;;;;;;4986941;28;20012;-91
2022/04/07 02:04:27;;;;;;;;;;;8.30;99.90;;;;;;4982713;28;19921;-91
2022/04/07 02:06:53;;;;;;;;;;;8.30;99.90;;;;;;5001323;28;20382;-91
2022/04/07 02:09:18;;;;;;;;;;;8.30;99.90;;;;;;5007998;28;19960;-91
2022/04/07 02:11:44;;;;;;;;;;;8.30;99.90;;;;;;4989296;28;19924;-91
2022/04/07 02:14:10;;;;;;;;;;;8.30;99.90;;;;;;4995531;28;19996;-90
2022/04/07 02:16:35;;;;;;;;;;;8.30;99.90;;;;;;5012256;28;20377;-91
2022/04/07 02:19:01;;;;;;;;;;;8.30;99.90;;;;;;4994836;28;19914;-90
2022/04/07 02:21:27;;;;;;;;;;;8.30;99.90;;;;;;5002102;28;20290;-91
2022/04/07 02:23:52;;;;;;;;;;;8.30;99.90;;;;;;4994870;28;19910;-90
2022/04/07 02:26:18;;;;;;;;;;;8.30;99.90;;;;;;5012280;28;19941;-92
2022/04/07 02:28:44;;;;;;;;;;;8.30;99.90;;;;;;4989568;28;20338;-91
2022/04/07 02:31:10;;;;;;;;;;;8.30;99.90;;;;;;5008336;28;20378;-91
2022/04/07 02:33:36;;;;;;;;;;;8.40;99.90;;;;;;5012531;28;20004;-91
2022/04/07 02:36:02;;;;;;;;;;;8.40;99.90;;;;;;5004352;28;19967;-91
2022/04/07 02:38:28;;;;;;;;;;;8.30;99.90;;;;;;4993145;28;19914;-91
2022/04/07 02:40:53;;;;;;;;;;;8.30;99.90;;;;;;4983694;28;19921;-90
2022/04/07 02:43:19;;;;;;;;;;;8.30;99.90;;;;;;5012174;28;19967;-90
2022/04/07 02:45:45;;;;;;;;;;;8.30;99.90;;;;;;5011839;28;20028;-91
2022/04/07 02:48:10;;;;;;;;;;;8.30;99.90;;;;;;4995117;28;19918;-91
2022/04/07 02:50:36;;;;;;;;;;;8.30;99.90;;;;;;5012296;28;19909;-89
2022/04/07 02:53:01;;;;;;;;;;;8.30;99.90;;;;;;5011555;28;19917;-90
2022/04/07 02:55:27;;;;;;;;;;;8.30;99.90;;;;;;4992608;28;19920;-91
2022/04/07 02:57:53;;;;;;;;;;;8.30;99.90;;;;;;4977736;28;19918;-91
2022/04/07 03:00:18;;;;;;;;;;;8.20;99.90;;;;;;5008962;28;19926;-91
2022/04/07 03:02:44;;;;;;;;;;;8.20;99.90;;;;;;5000298;28;19926;-91
2022/04/07 03:05:09;;;;;;;;;;;8.30;99.90;;;;;;5004141;28;20394;-92
2022/04/07 03:07:36;;;;;;;;;;;8.20;99.90;;;;;;5004945;28;19918;-91
2022/04/07 03:10:01;;;;;;;;;;;8.20;99.90;;;;;;5003438;28;19914;-92
2022/04/07 03:12:27;;;;;;;;;;;8.20;99.90;;;;;;4999104;28;20473;-92
2022/04/07 03:14:52;;;;;;;;;;;8.30;99.90;;;;;;5004443;28;19913;-91
2022/04/07 03:17:18;;;;;;;;;;;8.30;99.90;;;;;;4995327;28;20330;-91
2022/04/07 03:19:43;;;;;;;;;;;8.30;99.90;;;;;;5007228;28;20000;-92
2022/04/07 03:22:09;;;;;;;;;;;8.20;99.90;;;;;;5001297;28;20001;-91
2022/04/07 03:24:34;;;;;;;;;;;8.30;99.90;;;;;;4993605;28;20406;-91
2022/04/07 03:27:01;;;;;;;;;;;8.30;99.90;;;;;;4981615;28;20367;-91
2022/04/07 03:29:29;;;;;;;;;;;8.30;99.90;;;;;;5005401;28;19945;-91
2022/04/07 03:31:55;;;;;;;;;;;8.30;99.90;;;;;;4988596;28;20392;-90
2022/04/07 03:34:20;;;;;;;;;;;8.30;99.90;;;;;;4980097;28;19918;-92
2022/04/07 03:36:46;;;;;;;;;;;8.30;99.90;;;;;;4985816;28;20301;-91
2022/04/07 03:39:13;;;;;;;;;;;8.30;99.90;;;;;;5004809;28;19952;-91
2022/04/07 03:41:39;;;;;;;;;;;8.30;99.90;;;;;;4984850;28;20303;-91
2022/04/07 03:44:07;;;;;;;;;;;8.30;99.90;;;;;;5008908;28;19913;-91
2022/04/07 03:46:33;;;;;;;;;;;8.30;99.90;;;;;;4996923;28;19918;-91
2022/04/07 03:48:58;;;;;;;;;;;8.30;99.90;;;;;;4983040;28;20639;-92
2022/04/07 03:51:24;;;;;;;;;;;8.30;99.90;;;;;;4998631;28;19972;-92
2022/04/07 03:53:49;;;;;;;;;;;8.30;99.90;;;;;;4981969;28;19922;-92
2022/04/07 03:56:15;;;;;;;;;;;8.30;99.90;;;;;;4975444;28;19964;-92
2022/04/07 03:58:40;;;;;;;;;;;8.30;99.90;;;;;;4989640;28;19914;-91
2022/04/07 04:01:06;;;;;;;;;;;8.30;99.90;;;;;;4990176;28;20374;-91
2022/04/07 04:03:31;;;;;;;;;;;8.30;99.90;;;;;;4974116;28;19925;-92
2022/04/07 04:05:57;;;;;;;;;;;8.30;99.90;;;;;;4985124;28;19932;-92
2022/04/07 04:08:22;;;;;;;;;;;8.30;99.90;;;;;;4981614;28;19922;-92
2022/04/07 04:10:48;;;;;;;;;;;8.30;99.90;;;;;;4981898;28;19913;-92
2022/04/07 04:13:13;;;;;;;;;;;8.30;99.90;;;;;;5005361;28;19953;-92
2022/04/07 04:15:39;;;;;;;;;;;8.20;99.90;;;;;;4986684;28;19964;-92
2022/04/07 04:18:05;;;;;;;;;;;8.20;99.90;;;;;;4995824;28;20335;-91
2022/04/07 04:20:30;;;;;;;;;;;8.20;99.90;;;;;;4984169;28;20378;-91
2022/04/07 04:22:56;;;;;;;;;;;8.20;99.90;;;;;;5001122;28;19953;-91
2022/04/07 04:25:22;;;;;;;;;;;8.20;99.90;;;;;;5001949;28;20000;-91
2022/04/07 04:27:48;;;;;;;;;;;8.30;99.90;;;;;;5001192;28;19968;-92
2022/04/07 04:30:14;;;;;;;;;;;8.20;99.90;;;;;;5003108;28;20374;-92
2022/04/07 04:32:39;;;;;;;;;;;8.20;99.90;;;;;;5002949;28;20346;-91
2022/04/07 04:35:06;;;;;;;;;;;8.20;99.90;;;;;;4997814;28;19918;-92
2022/04/07 04:37:31;;;;;;;;;;;8.20;99.90;;;;;;4996030;28;19918;-92
2022/04/07 04:39:57;;;;;;;;;;;8.20;99.90;;;;;;5011535;28;20291;-92
2022/04/07 04:42:22;;;;;;;;;;;8.20;99.90;;;;;;5000580;28;19913;-92
2022/04/07 04:44:49;;;;;;;;;;;8.20;99.90;;;;;;4986639;28;19997;-92
2022/04/07 04:47:16;;;;;;;;;;;8.20;99.90;;;;;;5013183;28;19935;-92
2022/04/07 04:49:42;;;;;;;;;;;8.20;99.90;;;;;;4996698;28;20004;-92
2022/04/07 04:52:08;;;;;;;;;;;8.10;99.90;;;;;;4988692;28;20040;-92
2022/04/07 04:54:34;;;;;;;;;;;8.20;99.90;;;;;;5006123;28;19924;-92
2022/04/07 04:56:59;;;;;;;;;;;8.10;99.90;;;;;;4991348;28;20012;-91
2022/04/07 04:59:25;;;;;;;;;;;8.20;99.90;;;;;;5004110;28;20306;-92
2022/04/07 05:01:50;;;;;;;;;;;8.20;99.90;;;;;;5005270;28;19914;-92
2022/04/07 05:04:16;;;;;;;;;;;8.20;99.90;;;;;;4995705;28;19918;-91
2022/04/07 05:06:41;;;;;;;;;;;8.20;99.90;;;;;;4986456;28;20349;-92
2022/04/07 05:09:06;;;;;;;;;;;8.20;99.90;;;;;;4985273;28;20020;-92
2022/04/07 05:11:33;;;;;;;;;;;8.20;99.90;;;;;;4995335;28;20294;-92
2022/04/07 05:13:59;;;;;;;;;;;8.20;99.90;;;;;;4980125;28;19918;-91
2022/04/07 05:16:24;;;;;;;;;;;8.20;99.90;;;;;;5003884;28;19924;-91
2022/04/07 05:18:50;;;;;;;;;;;8.20;99.90;;;;;;5006649;28;20408;-92
2022/04/07 05:21:16;;;;;;;;;;;8.20;99.90;;;;;;4999504;28;20389;-91
2022/04/07 05:23:41;;;;;;;;;;;8.20;99.90;;;;;;5010184;28;19942;-91
2022/04/07 05:26:07;;;;;;;;;;;8.20;99.90;;;;;;4985330;28;19917;-92
2022/04/07 05:28:32;;;;;;;;;;;8.20;99.90;;;;;;4996874;28;20279;-92
2022/04/07 05:30:58;;;;;;;;;;;8.20;99.90;;;;;;4993191;28;19917;-92
2022/04/07 05:33:23;;;;;;;;;;;8.30;99.90;;;;;;4993655;28;19944;-91
2022/04/07 05:35:49;;;;;;;;;;;8.30;99.90;;;;;;5009230;28;19944;-92
2022/04/07 05:38:14;;;;;;;;;;;8.30;99.90;;;;;;4992232;28;19925;-91
2022/04/07 05:40:40;;;;;;;;;;;8.30;99.90;;;;;;4987167;28;19921;-91
2022/04/07 05:43:05;;;;;;;;;;;8.30;99.90;;;;;;4999102;28;19921;-92
2022/04/07 05:45:31;;;;;;;;;;;8.30;99.90;;;;;;4990025;28;20066;-91
2022/04/07 05:47:57;;;;;;;;;;;8.30;99.90;;;;;;5005898;28;19918;-91
2022/04/07 05:50:23;;;;;;;;;;;8.30;99.90;;;;;;4997181;28;19964;-92
2022/04/07 05:52:48;;;;;;;;;;;8.30;99.90;;;;;;4994187;28;19918;-92
2022/04/07 05:55:14;;;;;;;;;;;8.30;99.90;;;;;;5003546;28;19925;-92
2022/04/07 05:57:39;;;;;;;;;;;8.30;99.90;;;;;;4977043;28;19918;-92
2022/04/07 06:00:06;;;;;;;;;;;8.30;99.90;;;;;;5008129;28;20204;-92
2022/04/07 06:02:31;;;;;;;;;;;8.30;99.90;;;;;;5008668;28;19955;-91
2022/04/07 06:04:57;;;;;;;;;;;8.30;99.90;;;;;;5003648;28;19921;-92
2022/04/07 06:07:22;;;;;;;;;;;8.30;99.90;;;;;;5009633;28;19914;-92
2022/04/07 06:09:48;;;;;;;;;;;8.40;99.90;;;;;;5002712;28;19925;-92
2022/04/07 06:12:13;;;;;;;;;;;8.40;99.90;;;;;;4982163;28;19961;-92
2022/04/07 06:14:39;;;;;;;;;;;8.40;99.90;;;;;;5002828;28;19922;-91
2022/04/07 06:17:04;;;;;;;;;;;8.40;99.90;;;;;;5003547;28;19918;-91
2022/04/07 06:19:30;;;;;;;;;;;8.40;99.90;;;;;;4986861;28;19925;-92
2022/04/07 06:21:55;;;;;;;;;;;8.40;99.90;;;;;;4997680;28;19913;-92
2022/04/07 06:24:21;;;;;;;;;;;8.40;99.90;;;;;;4982721;28;20446;-92
2022/04/07 06:26:49;;;;;;;;;;;8.40;99.90;;;;;;4993562;28;20004;-91
2022/04/07 06:29:14;;;;;;;;;;;8.40;99.90;;;;;;5002565;28;19914;-91
2022/04/07 06:31:40;;;;;;;;;;;8.40;99.90;;;;;;5009942;28;19925;-91
2022/04/07 06:34:05;;;;;;;;;;;8.40;99.90;;;;;;5011340;28;19938;-91
2022/04/07 06:36:31;;;;;;;;;;;8.50;99.90;;;;;;5019745;28;19924;-91
2022/04/07 06:38:56;;;;;;;;;;;8.60;99.90;;;;;;5030464;28;19957;-91
2022/04/07 06:41:22;;;;;;;;;;;8.60;99.90;;;;;;5030540;28;20278;-91
2022/04/07 06:43:47;;;;;;;;;;;8.70;99.90;;;;;;5012572;28;19926;-91
2022/04/07 06:46:13;;;;;;;;;;;8.70;99.90;;;;;;5001604;28;19952;-91
2022/04/07 06:48:38;;;;;;;;;;;8.80;99.90;;;;;;5029883;28;19926;-91
2022/04/07 06:51:04;;;;;;;;;;;8.80;99.90;;;;;;4999764;28;19949;-91
2022/04/07 06:53:29;;;;;;;;;;;8.80;99.90;;;;;;4999887;28;20374;-91
2022/04/07 06:55:55;;;;;;;;;;;8.80;99.90;;;;;;4991147;28;20390;-91
2022/04/07 06:58:20;;;;;;;;;;;8.80;99.90;;;;;;4988258;28;19925;-91
2022/04/07 07:00:46;;;;;;;;;;;8.90;99.90;;;;;;5009399;28;19962;-91
2022/04/07 07:03:15;;;;;;;;;;;8.90;99.90;;;;;;5027964;28;19972;-91
2022/04/07 07:05:40;;;;;;;;;;;9.00;99.90;;;;;;5010326;28;20008;-91
2022/04/07 07:08:24;;;;;;;;;;;9.00;99.90;;;;;;5011331;28;20044;-91
2022/04/07 07:10:51;;;;;;;;;;;8.90;99.90;;;;;;4997296;28;20001;-91
2022/04/07 07:13:17;;;;;;;;;;;9.00;99.90;;;;;;5022588;28;19963;-91
2022/04/07 07:15:43;;;;;;;;;;;9.00;99.90;;;;;;5000595;28;19918;-91
2022/04/07 07:18:08;;;;;;;;;;;9.10;99.90;;;;;;4998729;28;19971;-91
2022/04/07 07:20:34;;;;;;;;;;;9.10;99.90;;;;;;4993393;28;20201;-91
2022/04/07 07:23:00;;;;;;;;;;;9.10;99.90;;;;;;4985349;28;19918;-91
2022/04/07 07:25:25;;;;;;;;;;;9.10;99.90;;;;;;5001620;28;19917;-92
2022/04/07 07:27:51;;;;;;;;;;;9.10;99.90;;;;;;4999629;28;20393;-90
2022/04/07 07:30:17;;;;;;;;;;;9.10;99.90;;;;;;4983831;28;19922;-91
2022/04/07 07:32:44;;;;;;;;;;;9.10;99.90;;;;;;5003001;28;20005;-91
2022/04/07 07:35:10;;;;;;;;;;;9.10;99.90;;;;;;5023414;22;19931;-85
2022/04/07 07:37:36;;;;;;;;;;;9.30;99.90;;;;;;5052381;28;20016;-85
2022/04/07 07:40:08;;;;;;;;;;;9.40;99.90;;;;;;5054069;28;19952;-87
2022/04/07 07:42:36;;;;;;;;;;;9.40;99.90;;;;;;5074954;28;19916;-85
2022/04/07 07:45:02;;;;;;;;;;;9.30;99.90;;;;;;5056201;28;19952;-86
2022/04/07 07:47:28;;;;;;;;;;;9.30;99.90;;;;;;5051390;28;19975;-85
2022/04/07 07:49:54;;;;;;;;;;;9.20;99.90;;;;;;5029593;28;20429;-86
2022/04/07 07:52:19;;;;;;;;;;;9.30;99.90;;;;;;5041930;28;19919;-87
2022/04/07 07:54:45;;;;;;;;;;;9.30;99.90;;;;;;5051147;28;19913;-86
2022/04/07 07:57:10;;;;;;;;;;;9.40;99.90;;;;;;5044681;28;19940;-86
2022/04/07 07:59:36;;;;;;;;;;;9.50;99.90;;;;;;5055152;28;19976;-86
2022/04/07 08:02:01;;;;;;;;;;;9.40;99.90;;;;;;5024254;28;19928;-86
2022/04/07 08:04:27;;;;;;;;;;;9.50;99.90;;;;;;5021363;28;20342;-86
2022/04/07 08:06:52;;;;;;;;;;;9.50;99.90;;;;;;5035788;28;20034;-84
2022/04/07 08:09:18;;;;;;;;;;;9.60;99.90;;;;;;5058811;28;19917;-85
2022/04/07 08:11:43;;;;;;;;;;;9.60;99.90;;;;;;5054651;28;19921;-84
2022/04/07 08:14:09;;;;;;;;;;;9.70;99.90;;;;;;5054526;28;19917;-86
2022/04/07 08:16:35;;;;;;;;;;;9.80;99.90;;;;;;5056034;28;19917;-86
2022/04/07 08:19:00;;;;;;;;;;;9.80;99.90;;;;;;5046865;28;20404;-86
2022/04/07 08:21:26;;;;;;;;;;;9.90;99.90;;;;;;5035472;28;19923;-86
2022/04/07 08:23:51;;;;;;;;;;;10.00;99.90;;;;;;5032121;28;19931;-86
2022/04/07 08:26:17;;;;;;;;;;;10.00;99.90;;;;;;5021066;28;19925;-86
2022/04/07 08:28:42;;;;;;;;;;;10.00;99.90;;;;;;5041289;28;20456;-86
2022/04/07 08:31:08;;;;;;;;;;;10.00;99.90;;;;;;5030594;28;19917;-86
2022/04/07 08:33:33;;;;;;;;;;;10.10;99.90;;;;;;5034293;28;19921;-86
2022/04/07 08:35:59;;;;;;;;;;;10.00;99.90;;;;;;5049069;28;20000;-86
2022/04/07 08:38:24;;;;;;;;;;;10.00;99.90;;;;;;5026002;28;19976;-86
2022/04/07 08:40:53;;;;;;;;;;;10.10;99.90;;;;;;5051859;28;20391;-86
2022/04/07 08:43:18;;;;;;;;;;;10.20;99.90;;;;;;5024849;28;19924;-86
2022/04/07 08:45:44;;;;;;;;;;;10.30;99.90;;;;;;5058228;28;19908;-86
2022/04/07 08:48:11;;;;;;;;;;;10.30;99.90;;;;;;5058261;28;20315;-86
2022/04/07 08:50:39;;;;;;;;;;;10.20;99.90;;;;;;5049308;28;19913;-86
2022/04/07 08:53:05;;;;;;;;;;;10.30;99.90;;;;;;5051408;28;19920;-86
2022/04/07 08:55:30;;;;;;;;;;;10.20;99.90;;;;;;5041415;28;19917;-87
2022/04/07 08:57:56;;;;;;;;;;;10.10;99.90;;;;;;5030310;28;19945;-85
2022/04/07 09:00:21;;;;;;;;;;;10.10;99.90;;;;;;5026987;28;19926;-87
2022/04/07 09:02:47;;;;;;;;;;;10.10;99.90;;;;;;5049636;28;19921;-86
2022/04/07 09:05:12;;;;;;;;;;;10.00;99.90;;;;;;5043755;28;20411;-87
2022/04/07 09:07:38;;;;;;;;;;;10.00;99.90;;;;;;5054710;28;19917;-86
2022/04/07 09:10:04;;;;;;;;;;;10.10;99.90;;;;;;5038926;28;20383;-86
2022/04/07 09:12:30;;;;;;;;;;;10.10;99.90;;;;;;5030668;28;20015;-86
2022/04/07 09:14:59;;;;;;;;;;;10.10;99.90;;;;;;5030920;28;19917;-86
2022/04/07 09:17:26;;;;;;;;;;;10.00;99.90;;;;;;5040060;28;19967;-86
2022/04/07 09:19:52;;;;;;;;;;;10.00;99.90;;;;;;5054498;28;19925;-86
2022/04/07 09:22:17;;;;;;;;;;;10.00;99.90;;;;;;5052522;28;20304;-86
2022/04/07 09:24:43;;;;;;;;;;;10.10;99.90;;;;;;5046060;28;19920;-86
2022/04/07 09:27:09;;;;;;;;;;;10.10;99.90;;;;;;5052804;28;19913;-86
2022/04/07 09:29:38;;;;;;;;;;;10.10;99.90;;;;;;5045527;28;20338;-86
2022/04/07 09:32:04;;;;;;;;;;;10.20;99.90;;;;;;5046688;28;19948;-86
2022/04/07 09:34:30;;;;;;;;;;;10.30;99.90;;;;;;5033262;28;20424;-85
2022/04/07 09:37:06;;;;;;;;;;;10.40;99.90;;;;;;5042684;28;19924;-85
2022/04/07 09:39:33;;;;;;;;;;;10.30;99.90;;;;;;5050955;28;19986;-85
2022/04/07 09:42:19;;;;;;;;;;;10.30;99.90;;;;;;5049394;28;19917;-85
2022/04/07 09:44:48;;;;;;;;;;;10.20;99.90;;;;;;5024753;28;19913;-85
2022/04/07 09:47:15;;;;;;;;;;;10.30;99.90;;;;;;5040201;28;20396;-85
2022/04/07 09:49:40;;;;;;;;;;;10.30;99.90;;;;;;5052379;28;20018;-85
2022/04/07 09:52:07;;;;;;;;;;;10.40;99.90;;;;;;5030775;28;19952;-86
2022/04/07 09:54:34;;;;;;;;;;;10.50;99.90;;;;;;5035480;28;20641;-85
2022/04/07 09:57:01;;;;;;;;;;;10.60;99.90;;;;;;5047663;28;20044;-85
2022/04/07 09:59:28;;;;;;;;;;;10.60;99.90;;;;;;5023303;28;19922;-86
2022/04/07 10:01:53;;;;;;;;;;;10.70;99.90;;;;;;5038496;28;19917;-86
2022/04/07 10:04:20;;;;;;;;;;;10.80;99.90;;;;;;5047042;28;20011;-85
2022/04/07 10:06:46;;;;;;;;;;;10.80;99.90;;;;;;5045120;28;19920;-86
2022/04/07 10:09:13;;;;;;;;;;;10.80;99.90;;;;;;5033452;28;19921;-85
2022/04/07 10:11:39;;;;;;;;;;;10.90;99.90;;;;;;5039782;28;19932;-85
2022/04/07 10:14:05;;;;;;;;;;;11.00;99.90;;;;;;5044696;28;19916;-86
2022/04/07 10:16:30;;;;;;;;;;;11.10;99.90;;;;;;5022347;28;19917;-85
2022/04/07 10:19:10;;;;;;;;;;;11.20;99.90;;;;;;5025510;28;19917;-85
2022/04/07 10:21:55;;;;;;;;;;;11.40;99.90;;;;;;5034300;28;19920;-85
2022/04/07 10:24:27;;;;;;;;;;;11.50;99.90;;;;;;5043991;28;19920;-84
2022/04/07 10:26:53;;;;;;;;;;;11.60;99.90;;;;;;5042294;28;19913;-85
2022/04/07 10:29:20;;;;;;;;;;;11.60;99.90;;;;;;5036409;28;19975;-85
2022/04/07 10:32:05;;;;;;;;;;;11.60;99.90;;;;;;5048784;28;19909;-85
2022/04/07 10:34:31;;;;;;;;;;;11.40;99.90;;;;;;5034712;28;19940;-85
2022/04/07 10:37:05;;;;;;;;;;;11.40;99.90;;;;;;5042140;28;19975;-86
2022/04/07 10:39:33;;;;;;;;;;;11.40;99.90;;;;;;5043664;28;19917;-86
2022/04/07 10:41:59;;;;;;;;;;;11.40;99.90;;;;;;5034884;28;20417;-85
2022/04/07 10:44:25;;;;;;;;;;;11.50;99.90;;;;;;5038302;28;19919;-85
2022/04/07 10:47:02;;;;;;;;;;;11.50;99.90;;;;;;5015636;28;20283;-86
2022/04/07 10:49:29;;;;;;;;;;;11.60;99.90;;;;;;5026035;28;19947;-85
2022/04/07 10:51:55;;;;;;;;;;;11.70;99.90;;;;;;5023675;28;19922;-86
2022/04/07 10:54:21;;;;;;;;;;;11.80;99.90;;;;;;5041909;28;19978;-86
2022/04/07 10:56:49;;;;;;;;;;;12.00;99.90;;;;;;5043239;28;19921;-86
2022/04/07 10:59:18;;;;;;;;;;;12.20;99.90;;;;;;5034955;28;19925;-86
2022/04/07 11:01:44;;;;;;;;;;;12.20;99.90;;;;;;5046788;28;19913;-86
2022/04/07 11:04:22;;;;;;;;;;;12.10;99.90;;;;;;5039021;28;19958;-86
2022/04/07 11:07:15;;;;;;;;;;;12.10;99.90;;;;;;5040101;28;19921;-86
2022/04/07 11:09:53;;;;;;;;;;;12.30;99.90;;;;;;5034925;28;19913;-86
2022/04/07 11:12:25;;;;;;;;;;;12.60;99.90;;;;;;5046876;28;20293;-86
2022/04/07 11:14:53;;;;;;;;;;;12.80;99.90;;;;;;5027705;28;19923;-85
2022/04/07 11:17:25;;;;;;;;;;;12.70;99.90;;;;;;5053591;28;19960;-84
2022/04/07 11:20:09;;;;;;;;;;;12.70;99.90;;;;;;5049382;28;19927;-84
2022/04/07 11:22:48;;;;;;;;;;;12.70;99.90;;;;;;5040700;28;22151;-84
2022/04/07 11:25:15;;;;;;;;;;;12.60;99.90;;;;;;5052529;28;19916;-84
2022/04/07 11:27:42;;;;;;;;;;;12.40;99.90;;;;;;5041271;28;20396;-84
2022/04/07 11:30:09;;;;;;;;;;;12.40;99.90;;;;;;5044975;28;19919;-85
2022/04/07 11:32:36;;;;;;;;;;;12.40;99.90;;;;;;5041601;28;19924;-84
2022/04/07 11:35:11;;;;;;;;;;;12.30;99.90;;;;;;5045399;28;20305;-84
2022/04/07 11:37:41;;;;;;;;;;;12.40;99.90;;;;;;5051681;28;19927;-84
2022/04/07 11:40:07;;;;;;;;;;;12.30;99.90;;;;;;5040255;28;19917;-84
2022/04/07 11:42:32;;;;;;;;;;;12.30;99.90;;;;;;5054734;28;19920;-85
2022/04/07 11:44:59;;;;;;;;;;;12.20;99.90;;;;;;5048805;28;19913;-85
2022/04/07 11:47:24;;;;;;;;;;;12.10;99.90;;;;;;5020147;28;19928;-84
2022/04/07 11:49:50;;;;;;;;;;;12.20;99.90;;;;;;5051023;28;19913;-85
2022/04/07 11:52:16;;;;;;;;;;;12.20;99.90;;;;;;5029169;28;19918;-85
2022/04/07 11:54:41;;;;;;;;;;;12.20;99.90;;;;;;5051881;28;19917;-85
2022/04/07 11:57:08;;;;;;;;;;;12.30;99.90;;;;;;5026378;28;19921;-84
2022/04/07 11:59:37;;;;;;;;;;;12.40;99.90;;;;;;5028525;28;19929;-84
2022/04/07 12:02:03;;;;;;;;;;;12.50;99.90;;;;;;5026376;28;19948;-84
2022/04/07 12:04:34;;;;;;;;;;;12.70;99.90;;;;;;5055636;28;19917;-85
2022/04/07 12:07:00;;;;;;;;;;;12.60;99.90;;;;;;5034426;28;19916;-86
2022/04/07 12:09:26;;;;;;;;;;;12.60;99.90;;;;;;5051602;28;19917;-85
2022/04/07 12:11:52;;;;;;;;;;;12.50;99.90;;;;;;5045510;28;19979;-86
2022/04/07 12:14:24;;;;;;;;;;;12.50;99.90;;;;;;5027771;28;19917;-84
2022/04/07 12:16:50;;;;;;;;;;;12.50;99.90;;;;;;5037015;28;19967;-85
2022/04/07 12:19:17;;;;;;;;;;;12.50;99.90;;;;;;5044786;28;20385;-84
2022/04/07 12:21:58;;;;;;;;;;;12.50;99.90;;;;;;5049519;28;19936;-85
2022/04/07 12:24:25;;;;;;;;;;;12.50;99.90;;;;;;5045082;28;20401;-86
2022/04/07 12:26:52;;;;;;;;;;;12.30;99.90;;;;;;5028285;28;20011;-84
2022/04/07 12:29:18;;;;;;;;;;;12.20;99.90;;;;;;5044043;28;19949;-85
2022/04/07 12:31:44;;;;;;;;;;;12.30;99.90;;;;;;5043200;28;19924;-85
2022/04/07 12:34:17;;;;;;;;;;;12.30;99.90;;;;;;5052169;28;19913;-85
2022/04/07 12:36:43;;;;;;;;;;;12.30;99.90;;;;;;5040077;28;19956;-85
2022/04/07 12:39:12;;;;;;;;;;;12.40;99.90;;;;;;5054844;28;20363;-87
2022/04/07 12:41:43;;;;;;;;;;;12.30;99.90;;;;;;5046031;28;19925;-86
2022/04/07 12:44:10;;;;;;;;;;;12.20;99.90;;;;;;5057265;28;19916;-85
2022/04/07 12:46:47;;;;;;;;;;;12.00;99.90;;;;;;5037784;28;19959;-85
2022/04/07 12:49:12;;;;;;;;;;;12.00;99.90;;;;;;5048281;28;19921;-85
2022/04/07 12:51:39;;;;;;;;;;;11.90;99.90;;;;;;5043175;28;19920;-84
2022/04/07 12:54:09;;;;;;;;;;;11.90;99.90;;;;;;5051505;28;19978;-85
2022/04/07 12:56:35;;;;;;;;;;;11.90;99.90;;;;;;5021708;28;19976;-86
2022/04/07 12:59:02;;;;;;;;;;;11.80;99.90;;;;;;5060237;28;20312;-84
2022/04/07 13:01:29;;;;;;;;;;;11.70;99.90;;;;;;5034975;28;19921;-85
2022/04/07 13:03:56;;;;;;;;;;;11.60;99.90;;;;;;5045013;28;19920;-86
2022/04/07 13:06:25;;;;;;;;;;;11.50;99.90;;;;;;5051488;28;19984;-86
2022/04/07 13:08:50;;;;;;;;;;;11.40;99.90;;;;;;5047460;28;19988;-85
2022/04/07 13:11:48;;;;;;;;;;;11.30;99.90;;;;;;5068863;28;19924;-85
2022/04/07 13:14:14;;;;;;;;;;;11.30;99.90;;;;;;5028373;28;20008;-84
2022/04/07 13:16:40;;;;;;;;;;;11.20;99.90;;;;;;5048104;28;19972;-84
2022/04/07 13:19:08;;;;;;;;;;;11.20;99.90;;;;;;5043304;28;20187;-84
2022/04/07 13:21:33;;;;;;;;;;;11.10;99.90;;;;;;5016630;28;19996;-83
2022/04/07 13:23:59;;;;;;;;;;;11.10;99.90;;;;;;5033037;28;20385;-83
2022/04/07 13:26:25;;;;;;;;;;;11.00;99.90;;;;;;5045082;28;19970;-83
2022/04/07 13:28:51;;;;;;;;;;;10.90;99.90;;;;;;5032849;28;20459;-84
2022/04/07 13:31:17;;;;;;;;;;;11.00;99.90;;;;;;5034314;28;19913;-83
2022/04/07 13:33:43;;;;;;;;;;;11.00;99.90;;;;;;5013565;28;19979;-84
2022/04/07 13:36:08;;;;;;;;;;;11.00;99.90;;;;;;5079089;22;19975;-86
2022/04/07 13:38:34;;;;;;;;;;;11.00;99.90;;;;;;5050609;28;20397;-85
2022/04/07 13:41:00;;;;;;;;;;;11.00;99.90;;;;;;5038142;28;19921;-86
2022/04/07 13:43:28;;;;;;;;;;;10.90;99.90;;;;;;5055452;28;20280;-86
2022/04/07 13:45:54;;;;;;;;;;;10.90;99.90;;;;;;5050075;28;19996;-83
2022/04/07 13:48:20;;;;;;;;;;;10.90;99.90;;;;;;5038841;28;19921;-85
2022/04/07 13:50:46;;;;;;;;;;;10.80;99.90;;;;;;5028828;28;19921;-85
2022/04/07 13:53:12;;;;;;;;;;;10.80;99.90;;;;;;5027544;28;19959;-85
2022/04/07 13:55:38;;;;;;;;;;;10.70;99.90;;;;;;5038931;28;19948;-86
2022/04/07 13:58:03;;;;;;;;;;;10.80;99.90;;;;;;5042287;28;19920;-81
2022/04/07 14:00:29;;;;;;;;;;;10.80;99.90;;;;;;5037781;28;19921;-84
2022/04/07 14:02:55;;;;;;;;;;;10.90;99.90;;;;;;5045342;28;20499;-86
2022/04/07 14:05:21;;;;;;;;;;;10.90;99.90;;;;;;5048819;28;19916;-85
2022/04/07 14:07:46;;;;;;;;;;;11.00;99.90;;;;;;5044429;28;19917;-85
2022/04/07 14:10:13;;;;;;;;;;;11.10;99.90;;;;;;5039386;28;20387;-83
2022/04/07 14:12:39;;;;;;;;;;;11.20;99.90;;;;;;5068687;28;19959;-84
2022/04/07 14:15:05;;;;;;;;;;;11.30;99.90;;;;;;5044560;28;19994;-84
2022/04/07 14:17:30;;;;;;;;;;;11.30;99.90;;;;;;5047289;28;19917;-83
2022/04/07 14:19:56;;;;;;;;;;;11.30;99.90;;;;;;5061857;28;20000;-83